sensor_id;sensor_type;location;lat;lon;timestamp;pressure;altitude;pressure_sealevel;temperature;humidity
48630;BME280;34426;52.180;4.462;2023-06-04T00:02:18;102328.19;;;14.71;62.41
48630;BME280;34426;52.180;4.462;2023-06-04T00:04:48;102339.44;;;14.71;63.01
48630;BME280;34426;52.180;4.462;2023-06-04T00:07:15;102334.84;;;14.64;62.25
48630;BME280;34426;52.180;4.462;2023-06-04T00:09:42;102335.69;;;14.65;63.28
48630;BME280;34426;52.180;4.462;2023-06-04T00:12:10;102337.59;;;14.59;62.85
48630;BME280;34426;52.180;4.462;2023-06-04T00:14:37;102330.16;;;14.53;63.27
48630;BME280;34426;52.180;4.462;2023-06-04T00:17:05;102337.44;;;14.49;63.03
48630;BME280;34426;52.180;4.462;2023-06-04T00:19:32;102329.31;;;14.53;63.25
48630;BME280;34426;52.180;4.462;2023-06-04T00:22:01;102330.59;;;14.45;63.30
48630;BME280;34426;52.180;4.462;2023-06-04T00:24:29;102332.09;;;14.36;63.60
48630;BME280;34426;52.180;4.462;2023-06-04T00:26:56;102326.34;;;14.43;63.68
48630;BME280;34426;52.180;4.462;2023-06-04T00:29:23;102330.75;;;14.39;63.65
48630;BME280;34426;52.180;4.462;2023-06-04T00:31:50;102328.44;;;14.36;63.29
48630;BME280;34426;52.180;4.462;2023-06-04T00:34:18;102329.94;;;14.21;63.43
48630;BME280;34426;52.180;4.462;2023-06-04T00:36:46;102330.28;;;14.25;64.06
48630;BME280;34426;52.180;4.462;2023-06-04T00:39:15;102342.88;;;14.22;63.98
48630;BME280;34426;52.180;4.462;2023-06-04T00:41:43;102337.25;;;14.22;63.89
48630;BME280;34426;52.180;4.462;2023-06-04T00:44:10;102340.06;;;14.06;64.29
48630;BME280;34426;52.180;4.462;2023-06-04T00:46:37;102336.13;;;14.07;64.43
48630;BME280;34426;52.180;4.462;2023-06-04T00:49:06;102338.78;;;13.96;64.29
48630;BME280;34426;52.180;4.462;2023-06-04T00:51:33;102342.25;;;13.87;65.18
48630;BME280;34426;52.180;4.462;2023-06-04T00:54:03;102338.16;;;13.94;64.73
48630;BME280;34426;52.180;4.462;2023-06-04T00:56:33;102334.75;;;13.92;64.19
48630;BME280;34426;52.180;4.462;2023-06-04T00:59:00;102342.09;;;13.93;64.66
48630;BME280;34426;52.180;4.462;2023-06-04T01:01:33;102345.59;;;13.84;64.65
48630;BME280;34426;52.180;4.462;2023-06-04T01:04:05;102340.28;;;13.87;64.96
48630;BME280;34426;52.180;4.462;2023-06-04T01:06:38;102345.59;;;13.84;65.05
48630;BME280;34426;52.180;4.462;2023-06-04T01:09:05;102340.22;;;13.82;64.91
48630;BME280;34426;52.180;4.462;2023-06-04T01:11:36;102339.13;;;13.83;65.02
48630;BME280;34426;52.180;4.462;2023-06-04T01:14:04;102333.66;;;13.77;65.28
48630;BME280;34426;52.180;4.462;2023-06-04T01:16:36;102343.84;;;13.66;65.58
48630;BME280;34426;52.180;4.462;2023-06-04T01:19:11;102339.59;;;13.63;65.24
48630;BME280;34426;52.180;4.462;2023-06-04T01:21:43;102345.22;;;13.63;65.95
48630;BME280;34426;52.180;4.462;2023-06-04T01:24:11;102341.03;;;13.66;65.19
48630;BME280;34426;52.180;4.462;2023-06-04T01:26:40;102344.84;;;13.60;65.29
48630;BME280;34426;52.180;4.462;2023-06-04T01:29:08;102343.66;;;13.56;65.34
48630;BME280;34426;52.180;4.462;2023-06-04T01:31:36;102343.44;;;13.46;65.21
48630;BME280;34426;52.180;4.462;2023-06-04T01:34:06;102336.81;;;13.52;65.96
48630;BME280;34426;52.180;4.462;2023-06-04T01:36:34;102340.03;;;13.44;65.14
48630;BME280;34426;52.180;4.462;2023-06-04T01:39:01;102343.44;;;13.46;65.28
48630;BME280;34426;52.180;4.462;2023-06-04T01:41:29;102337.81;;;13.46;65.61
48630;BME280;34426;52.180;4.462;2023-06-04T01:43:58;102339.19;;;13.43;65.11
48630;BME280;34426;52.180;4.462;2023-06-04T01:46:25;102341.41;;;13.41;65.74
48630;BME280;34426;52.180;4.462;2023-06-04T01:48:52;102344.72;;;13.38;65.76
48630;BME280;34426;52.180;4.462;2023-06-04T01:51:19;102331.16;;;13.35;65.69
48630;BME280;34426;52.180;4.462;2023-06-04T01:53:47;102342.66;;;13.34;66.19
48630;BME280;34426;52.180;4.462;2023-06-04T01:56:14;102331.66;;;13.32;66.00
48630;BME280;34426;52.180;4.462;2023-06-04T01:58:41;102337.56;;;13.19;66.29
48630;BME280;34426;52.180;4.462;2023-06-04T02:01:10;102339.88;;;13.22;66.12
48630;BME280;34426;52.180;4.462;2023-06-04T02:03:38;102334.03;;;13.23;66.51
48630;BME280;34426;52.180;4.462;2023-06-04T02:06:05;102331.56;;;13.15;66.99
48630;BME280;34426;52.180;4.462;2023-06-04T02:08:33;102340.38;;;13.07;66.59
48630;BME280;34426;52.180;4.462;2023-06-04T02:11:00;102339.28;;;13.08;66.91
48630;BME280;34426;52.180;4.462;2023-06-04T02:13:27;102339.53;;;13.07;66.84
48630;BME280;34426;52.180;4.462;2023-06-04T02:15:55;102347.94;;;13.07;67.14
48630;BME280;34426;52.180;4.462;2023-06-04T02:18:24;102344.28;;;13.06;66.99
48630;BME280;34426;52.180;4.462;2023-06-04T02:20:52;102345.28;;;13.00;67.21
48630;BME280;34426;52.180;4.462;2023-06-04T02:23:20;102335.75;;;13.01;66.94
48630;BME280;34426;52.180;4.462;2023-06-04T02:25:48;102341.91;;;12.98;67.64
48630;BME280;34426;52.180;4.462;2023-06-04T02:28:15;102341.28;;;12.96;67.62
48630;BME280;34426;52.180;4.462;2023-06-04T02:30:43;102339.59;;;12.83;67.46
48630;BME280;34426;52.180;4.462;2023-06-04T02:33:11;102335.94;;;12.83;67.34
48630;BME280;34426;52.180;4.462;2023-06-04T02:35:39;102338.63;;;12.78;67.68
48630;BME280;34426;52.180;4.462;2023-06-04T02:38:07;102342.28;;;12.78;67.65
48630;BME280;34426;52.180;4.462;2023-06-04T02:40:34;102338.88;;;12.76;67.65
48630;BME280;34426;52.180;4.462;2023-06-04T02:43:01;102343.25;;;12.72;67.88
48630;BME280;34426;52.180;4.462;2023-06-04T02:45:29;102338.00;;;12.76;68.12
48630;BME280;34426;52.180;4.462;2023-06-04T02:47:56;102345.94;;;12.67;68.49
48630;BME280;34426;52.180;4.462;2023-06-04T02:50:23;102344.25;;;12.66;68.23
48630;BME280;34426;52.180;4.462;2023-06-04T02:52:52;102345.59;;;12.63;68.41
48630;BME280;34426;52.180;4.462;2023-06-04T02:55:20;102346.19;;;12.65;68.29
48630;BME280;34426;52.180;4.462;2023-06-04T02:57:48;102348.28;;;12.58;68.77
48630;BME280;34426;52.180;4.462;2023-06-04T03:00:15;102353.16;;;12.63;68.53
48630;BME280;34426;52.180;4.462;2023-06-04T03:02:43;102349.28;;;12.52;68.71
48630;BME280;34426;52.180;4.462;2023-06-04T03:05:12;102352.56;;;12.49;68.76
48630;BME280;34426;52.180;4.462;2023-06-04T03:07:41;102350.38;;;12.51;68.61
48630;BME280;34426;52.180;4.462;2023-06-04T03:10:11;102345.00;;;12.50;68.46
48630;BME280;34426;52.180;4.462;2023-06-04T03:12:39;102344.16;;;12.49;68.51
48630;BME280;34426;52.180;4.462;2023-06-04T03:15:06;102345.00;;;12.50;68.50
48630;BME280;34426;52.180;4.462;2023-06-04T03:17:34;102345.50;;;12.47;68.92
48630;BME280;34426;52.180;4.462;2023-06-04T03:20:02;102341.09;;;12.39;69.33
48630;BME280;34426;52.180;4.462;2023-06-04T03:22:29;102345.63;;;12.40;69.20
48630;BME280;34426;52.180;4.462;2023-06-04T03:24:57;102337.31;;;12.33;69.37
48630;BME280;34426;52.180;4.462;2023-06-04T03:27:26;102345.47;;;12.23;69.80
48630;BME280;34426;52.180;4.462;2023-06-04T03:29:53;102340.72;;;12.24;69.87
48630;BME280;34426;52.180;4.462;2023-06-04T03:32:20;102336.56;;;12.15;69.54
48630;BME280;34426;52.180;4.462;2023-06-04T03:34:47;102339.59;;;12.13;70.21
48630;BME280;34426;52.180;4.462;2023-06-04T03:37:15;102340.97;;;12.11;70.32
48630;BME280;34426;52.180;4.462;2023-06-04T03:39:42;102339.47;;;11.96;70.49
48630;BME280;34426;52.180;4.462;2023-06-04T03:42:09;102344.22;;;11.96;70.97
48630;BME280;34426;52.180;4.462;2023-06-04T03:44:39;102342.63;;;11.88;71.29
48630;BME280;34426;52.180;4.462;2023-06-04T03:47:06;102344.34;;;11.89;71.50
48630;BME280;34426;52.180;4.462;2023-06-04T03:49:33;102350.53;;;11.80;71.72
48630;BME280;34426;52.180;4.462;2023-06-04T03:52:01;102351.84;;;11.77;72.04
48630;BME280;34426;52.180;4.462;2023-06-04T03:54:29;102352.72;;;11.78;72.21
48630;BME280;34426;52.180;4.462;2023-06-04T03:56:56;102351.06;;;11.70;72.49
48630;BME280;34426;52.180;4.462;2023-06-04T03:59:23;102352.44;;;11.68;72.74
48630;BME280;34426;52.180;4.462;2023-06-04T04:01:52;102357.91;;;11.74;72.92
48630;BME280;34426;52.180;4.462;2023-06-04T04:04:20;102347.94;;;11.78;72.82
48630;BME280;34426;52.180;4.462;2023-06-04T04:06:47;102358.88;;;11.68;73.32
48630;BME280;34426;52.180;4.462;2023-06-04T04:09:15;102355.56;;;11.71;73.18
48630;BME280;34426;52.180;4.462;2023-06-04T04:11:42;102356.19;;;11.73;73.45
48630;BME280;34426;52.180;4.462;2023-06-04T04:14:09;102355.72;;;11.76;73.51
48630;BME280;34426;52.180;4.462;2023-06-04T04:16:37;102354.78;;;11.82;73.85
48630;BME280;34426;52.180;4.462;2023-06-04T04:19:06;102360.88;;;11.79;74.06
48630;BME280;34426;52.180;4.462;2023-06-04T04:21:34;102359.16;;;11.78;74.50
48630;BME280;34426;52.180;4.462;2023-06-04T04:24:01;102350.56;;;11.91;74.34
48630;BME280;34426;52.180;4.462;2023-06-04T04:26:29;102355.06;;;11.92;74.23
48630;BME280;34426;52.180;4.462;2023-06-04T04:28:57;102345.47;;;12.00;74.42
48630;BME280;34426;52.180;4.462;2023-06-04T04:31:24;102355.34;;;12.03;74.29
48630;BME280;34426;52.180;4.462;2023-06-04T04:33:52;102350.47;;;12.10;74.18
48630;BME280;34426;52.180;4.462;2023-06-04T04:36:21;102354.25;;;12.15;74.35
48630;BME280;34426;52.180;4.462;2023-06-04T04:38:49;102351.56;;;12.20;74.76
48630;BME280;34426;52.180;4.462;2023-06-04T04:41:16;102347.06;;;12.19;74.45
48630;BME280;34426;52.180;4.462;2023-06-04T04:43:44;102352.31;;;12.27;74.69
48630;BME280;34426;52.180;4.462;2023-06-04T04:46:11;102354.50;;;12.37;74.73
48630;BME280;34426;52.180;4.462;2023-06-04T04:48:39;102351.72;;;12.37;74.71
48630;BME280;34426;52.180;4.462;2023-06-04T04:51:06;102349.53;;;12.39;74.63
48630;BME280;34426;52.180;4.462;2023-06-04T04:53:36;102347.69;;;12.45;74.90
48630;BME280;34426;52.180;4.462;2023-06-04T04:56:03;102346.84;;;12.44;74.44
48630;BME280;34426;52.180;4.462;2023-06-04T04:58:30;102350.75;;;12.43;74.63
48630;BME280;34426;52.180;4.462;2023-06-04T05:00:58;102347.56;;;12.51;74.67
48630;BME280;34426;52.180;4.462;2023-06-04T05:03:25;102346.47;;;12.52;74.68
48630;BME280;34426;52.180;4.462;2023-06-04T05:05:52;102349.84;;;12.66;74.68
48630;BME280;34426;52.180;4.462;2023-06-04T05:08:19;102351.81;;;12.65;74.44
48630;BME280;34426;52.180;4.462;2023-06-04T05:10:50;102347.66;;;12.68;74.43
48630;BME280;34426;52.180;4.462;2023-06-04T05:13:17;102350.72;;;12.66;74.44
48630;BME280;34426;52.180;4.462;2023-06-04T05:15:44;102357.56;;;12.71;74.61
48630;BME280;34426;52.180;4.462;2023-06-04T05:18:11;102350.94;;;12.77;74.47
48630;BME280;34426;52.180;4.462;2023-06-04T05:20:39;102348.75;;;12.79;74.50
48630;BME280;34426;52.180;4.462;2023-06-04T05:23:06;102351.19;;;12.87;74.22
48630;BME280;34426;52.180;4.462;2023-06-04T05:25:34;102346.66;;;12.86;74.49
48630;BME280;34426;52.180;4.462;2023-06-04T05:28:03;102353.00;;;12.93;74.53
48630;BME280;34426;52.180;4.462;2023-06-04T05:30:29;102359.94;;;13.02;73.95
48630;BME280;34426;52.180;4.462;2023-06-04T05:32:57;102351.25;;;13.04;73.65
48630;BME280;34426;52.180;4.462;2023-06-04T05:35:25;102358.69;;;13.10;74.14
48630;BME280;34426;52.180;4.462;2023-06-04T05:37:52;102361.88;;;13.13;73.97
48630;BME280;34426;52.180;4.462;2023-06-04T05:40:19;102363.22;;;13.22;73.67
48630;BME280;34426;52.180;4.462;2023-06-04T05:42:46;102353.09;;;13.21;74.15
48630;BME280;34426;52.180;4.462;2023-06-04T05:45:16;102362.22;;;13.28;74.20
48630;BME280;34426;52.180;4.462;2023-06-04T05:47:43;102364.03;;;13.35;74.20
48630;BME280;34426;52.180;4.462;2023-06-04T05:50:11;102366.47;;;13.43;73.98
48630;BME280;34426;52.180;4.462;2023-06-04T05:52:38;102359.91;;;13.54;73.75
48630;BME280;34426;52.180;4.462;2023-06-04T05:55:06;102358.81;;;13.55;73.59
48630;BME280;34426;52.180;4.462;2023-06-04T05:57:33;102364.03;;;13.63;73.35
48630;BME280;34426;52.180;4.462;2023-06-04T06:00:01;102370.38;;;13.70;73.28
48630;BME280;34426;52.180;4.462;2023-06-04T06:02:30;102370.47;;;13.75;72.76
48630;BME280;34426;52.180;4.462;2023-06-04T06:04:57;102374.03;;;13.87;72.70
48630;BME280;34426;52.180;4.462;2023-06-04T06:07:24;102372.94;;;13.88;72.74
48630;BME280;34426;52.180;4.462;2023-06-04T06:09:51;102372.53;;;13.96;72.68
48630;BME280;34426;52.180;4.462;2023-06-04T06:12:19;102377.75;;;14.05;72.44
48630;BME280;34426;52.180;4.462;2023-06-04T06:14:46;102369.41;;;14.10;72.09
48630;BME280;34426;52.180;4.462;2023-06-04T06:17:13;102376.22;;;14.14;72.08
48630;BME280;34426;52.180;4.462;2023-06-04T06:19:43;102374.09;;;14.21;72.11
48630;BME280;34426;52.180;4.462;2023-06-04T06:22:10;102378.72;;;14.27;71.26
48630;BME280;34426;52.180;4.462;2023-06-04T06:24:38;102372.38;;;14.37;70.53
48630;BME280;34426;52.180;4.462;2023-06-04T06:27:06;102377.28;;;14.41;70.58
48630;BME280;34426;52.180;4.462;2023-06-04T06:29:33;102377.34;;;14.46;70.24
48630;BME280;34426;52.180;4.462;2023-06-04T06:32:01;102377.44;;;14.51;70.92
48630;BME280;34426;52.180;4.462;2023-06-04T06:34:28;102383.75;;;14.58;70.08
48630;BME280;34426;52.180;4.462;2023-06-04T06:36:57;102378.53;;;14.67;69.19
48630;BME280;34426;52.180;4.462;2023-06-04T06:39:25;102387.34;;;14.71;69.20
48630;BME280;34426;52.180;4.462;2023-06-04T06:41:52;102384.91;;;14.79;69.63
48630;BME280;34426;52.180;4.462;2023-06-04T06:44:19;102383.28;;;14.83;69.11
48630;BME280;34426;52.180;4.462;2023-06-04T06:46:46;102385.31;;;14.88;68.36
48630;BME280;34426;52.180;4.462;2023-06-04T06:49:14;102391.63;;;14.95;68.41
48630;BME280;34426;52.180;4.462;2023-06-04T06:51:41;102391.78;;;15.05;67.28
48630;BME280;34426;52.180;4.462;2023-06-04T06:54:12;102387.66;;;15.13;66.42
48630;BME280;34426;52.180;4.462;2023-06-04T06:56:41;102390.84;;;15.21;65.38
48630;BME280;34426;52.180;4.462;2023-06-04T06:59:09;102390.31;;;15.24;65.52
48630;BME280;34426;52.180;4.462;2023-06-04T07:01:35;102386.47;;;15.30;64.34
48630;BME280;34426;52.180;4.462;2023-06-04T07:04:03;102393.34;;;15.40;63.90
48630;BME280;34426;52.180;4.462;2023-06-04T07:06:30;102388.88;;;15.44;63.01
48630;BME280;34426;52.180;4.462;2023-06-04T07:08:58;102397.09;;;15.45;63.40
48630;BME280;34426;52.180;4.462;2023-06-04T07:11:27;102392.97;;;15.53;63.88
48630;BME280;34426;52.180;4.462;2023-06-04T07:13:55;102390.22;;;15.58;64.05
48630;BME280;34426;52.180;4.462;2023-06-04T07:16:22;102399.25;;;15.60;63.54
48630;BME280;34426;52.180;4.462;2023-06-04T07:18:49;102395.44;;;15.71;62.38
48630;BME280;34426;52.180;4.462;2023-06-04T07:21:17;102398.66;;;15.80;62.03
48630;BME280;34426;52.180;4.462;2023-06-04T07:23:44;102392.53;;;15.88;61.93
48630;BME280;34426;52.180;4.462;2023-06-04T07:26:11;102397.38;;;15.92;61.40
48630;BME280;34426;52.180;4.462;2023-06-04T07:28:41;102395.47;;;15.98;61.54
48630;BME280;34426;52.180;4.462;2023-06-04T07:31:08;102400.34;;;16.08;61.20
48630;BME280;34426;52.180;4.462;2023-06-04T07:33:35;102398.94;;;16.10;60.83
48630;BME280;34426;52.180;4.462;2023-06-04T07:36:03;102393.41;;;16.20;60.88
48630;BME280;34426;52.180;4.462;2023-06-04T07:38:30;102403.09;;;16.29;60.08
48630;BME280;34426;52.180;4.462;2023-06-04T07:40:58;102397.53;;;16.40;59.70
48630;BME280;34426;52.180;4.462;2023-06-04T07:43:25;102398.72;;;16.49;60.57
48630;BME280;34426;52.180;4.462;2023-06-04T07:45:54;102396.91;;;16.65;57.80
48630;BME280;34426;52.180;4.462;2023-06-04T07:48:21;102397.25;;;16.73;57.17
48630;BME280;34426;52.180;4.462;2023-06-04T07:50:49;102397.03;;;16.80;56.46
48630;BME280;34426;52.180;4.462;2023-06-04T07:53:16;102399.34;;;16.88;59.33
48630;BME280;34426;52.180;4.462;2023-06-04T07:55:43;102394.00;;;16.96;56.23
48630;BME280;34426;52.180;4.462;2023-06-04T07:58:11;102395.97;;;16.96;56.45
48630;BME280;34426;52.180;4.462;2023-06-04T08:00:38;102389.28;;;17.07;58.37
48630;BME280;34426;52.180;4.462;2023-06-04T08:03:08;102398.97;;;17.21;55.42
48630;BME280;34426;52.180;4.462;2023-06-04T08:05:35;102397.03;;;17.27;56.16
48630;BME280;34426;52.180;4.462;2023-06-04T08:08:02;102392.22;;;17.38;54.29
48630;BME280;34426;52.180;4.462;2023-06-04T08:10:30;102394.47;;;17.36;54.52
48630;BME280;34426;52.180;4.462;2023-06-04T08:12:57;102401.00;;;17.36;54.79
48630;BME280;34426;52.180;4.462;2023-06-04T08:15:25;102401.84;;;17.37;53.72
48630;BME280;34426;52.180;4.462;2023-06-04T08:17:52;102389.41;;;17.33;55.31
48630;BME280;34426;52.180;4.462;2023-06-04T08:20:22;102411.19;;;17.37;54.90
48630;BME280;34426;52.180;4.462;2023-06-04T08:22:49;102399.63;;;17.49;54.90
48630;BME280;34426;52.180;4.462;2023-06-04T08:25:19;102399.94;;;17.52;54.26
48630;BME280;34426;52.180;4.462;2023-06-04T08:27:50;102402.22;;;17.55;54.31
48630;BME280;34426;52.180;4.462;2023-06-04T08:30:17;102405.97;;;17.66;54.43
48630;BME280;34426;52.180;4.462;2023-06-04T08:32:45;102405.41;;;17.69;52.55
48630;BME280;34426;52.180;4.462;2023-06-04T08:35:13;102400.06;;;17.73;53.66
48630;BME280;34426;52.180;4.462;2023-06-04T08:37:42;102404.31;;;17.85;54.17
48630;BME280;34426;52.180;4.462;2023-06-04T08:40:10;102396.41;;;17.92;52.13
48630;BME280;34426;52.180;4.462;2023-06-04T08:42:41;102404.09;;;18.02;52.87
48630;BME280;34426;52.180;4.462;2023-06-04T08:45:10;102397.00;;;18.05;51.66
48630;BME280;34426;52.180;4.462;2023-06-04T08:47:38;102400.41;;;18.07;50.40
48630;BME280;34426;52.180;4.462;2023-06-04T08:50:10;102400.41;;;18.22;49.16
48630;BME280;34426;52.180;4.462;2023-06-04T08:52:38;102399.28;;;18.28;51.41
48630;BME280;34426;52.180;4.462;2023-06-04T08:55:09;102406.09;;;18.37;49.70
48630;BME280;34426;52.180;4.462;2023-06-04T08:57:38;102399.31;;;18.48;48.75
48630;BME280;34426;52.180;4.462;2023-06-04T09:00:08;102399.63;;;18.62;46.87
48630;BME280;34426;52.180;4.462;2023-06-04T09:02:36;102406.66;;;18.65;48.35
48630;BME280;34426;52.180;4.462;2023-06-04T09:05:05;102404.41;;;18.67;47.30
48630;BME280;34426;52.180;4.462;2023-06-04T09:07:35;102410.91;;;18.77;45.58
48630;BME280;34426;52.180;4.462;2023-06-04T09:10:03;102415.16;;;18.75;47.46
48630;BME280;34426;52.180;4.462;2023-06-04T09:12:33;102411.19;;;18.91;49.31
48630;BME280;34426;52.180;4.462;2023-06-04T09:15:03;102411.19;;;19.01;46.55
48630;BME280;34426;52.180;4.462;2023-06-04T09:17:30;102416.81;;;19.11;48.57
48630;BME280;34426;52.180;4.462;2023-06-04T09:19:57;102423.03;;;19.18;47.97
48630;BME280;34426;52.180;4.462;2023-06-04T09:22:33;102414.50;;;19.28;47.57
48630;BME280;34426;52.180;4.462;2023-06-04T09:25:01;102415.06;;;19.25;47.32
48630;BME280;34426;52.180;4.462;2023-06-04T09:27:40;102421.84;;;19.35;46.27
48630;BME280;34426;52.180;4.462;2023-06-04T09:30:08;102420.75;;;19.25;46.33
48630;BME280;34426;52.180;4.462;2023-06-04T09:32:36;102415.06;;;19.31;45.04
48630;BME280;34426;52.180;4.462;2023-06-04T09:35:10;102416.19;;;19.35;46.74
48630;BME280;34426;52.180;4.462;2023-06-04T09:37:38;102424.09;;;19.43;45.62
48630;BME280;34426;52.180;4.462;2023-06-04T09:40:07;102430.28;;;19.60;48.37
48630;BME280;34426;52.180;4.462;2023-06-04T09:42:44;102425.47;;;19.60;43.24
48630;BME280;34426;52.180;4.462;2023-06-04T09:45:12;102432.28;;;19.54;44.83
48630;BME280;34426;52.180;4.462;2023-06-04T09:47:41;102431.97;;;19.66;45.59
48630;BME280;34426;52.180;4.462;2023-06-04T09:50:10;102432.50;;;19.73;46.32
48630;BME280;34426;52.180;4.462;2023-06-04T09:52:37;102430.75;;;19.82;45.19
48630;BME280;34426;52.180;4.462;2023-06-04T09:55:16;102417.00;;;20.00;44.76
48630;BME280;34426;52.180;4.462;2023-06-04T09:57:47;102422.59;;;20.15;44.05
48630;BME280;34426;52.180;4.462;2023-06-04T10:00:17;102426.97;;;20.36;42.93
48630;BME280;34426;52.180;4.462;2023-06-04T10:02:45;102420.72;;;20.39;42.48
48630;BME280;34426;52.180;4.462;2023-06-04T10:05:14;102424.72;;;20.38;41.75
48630;BME280;34426;52.180;4.462;2023-06-04T10:07:43;102427.50;;;20.48;44.49
48630;BME280;34426;52.180;4.462;2023-06-04T10:10:14;102426.94;;;20.46;42.55
48630;BME280;34426;52.180;4.462;2023-06-04T10:12:42;102433.06;;;20.64;41.94
48630;BME280;34426;52.180;4.462;2023-06-04T10:15:12;102428.38;;;20.78;40.30
48630;BME280;34426;52.180;4.462;2023-06-04T10:17:40;102424.88;;;20.86;40.44
48630;BME280;34426;52.180;4.462;2023-06-04T10:20:09;102433.56;;;20.71;41.52
48630;BME280;34426;52.180;4.462;2023-06-04T10:22:37;102432.84;;;20.84;41.37
48630;BME280;34426;52.180;4.462;2023-06-04T10:25:05;102424.78;;;20.96;40.63
48630;BME280;34426;52.180;4.462;2023-06-04T10:27:33;102432.31;;;21.11;39.32
48630;BME280;34426;52.180;4.462;2023-06-04T10:30:01;102432.44;;;21.24;38.37
48630;BME280;34426;52.180;4.462;2023-06-04T10:32:31;102427.75;;;21.39;40.65
48630;BME280;34426;52.180;4.462;2023-06-04T10:34:59;102426.53;;;21.45;38.65
48630;BME280;34426;52.180;4.462;2023-06-04T10:37:30;102424.97;;;21.57;40.13
48630;BME280;34426;52.180;4.462;2023-06-04T10:39:58;102428.13;;;21.56;38.76
48630;BME280;34426;52.180;4.462;2023-06-04T10:42:26;102424.97;;;21.57;36.55
48630;BME280;34426;52.180;4.462;2023-06-04T10:44:55;102421.75;;;21.64;36.94
48630;BME280;34426;52.180;4.462;2023-06-04T10:47:23;102422.66;;;21.60;40.09
48630;BME280;34426;52.180;4.462;2023-06-04T10:49:54;102423.34;;;21.70;37.37
48630;BME280;34426;52.180;4.462;2023-06-04T10:52:22;102426.72;;;21.96;35.91
48630;BME280;34426;52.180;4.462;2023-06-04T10:54:49;102421.25;;;22.00;37.04
48630;BME280;34426;52.180;4.462;2023-06-04T10:57:18;102427.09;;;21.89;37.79
48630;BME280;34426;52.180;4.462;2023-06-04T10:59:54;102421.09;;;22.10;38.29
48630;BME280;34426;52.180;4.462;2023-06-04T11:02:22;102414.56;;;22.28;37.62
48630;BME280;34426;52.180;4.462;2023-06-04T11:05:01;102417.25;;;22.19;35.11
48630;BME280;34426;52.180;4.462;2023-06-04T11:07:29;102423.72;;;22.25;37.98
48630;BME280;34426;52.180;4.462;2023-06-04T11:09:57;102417.78;;;22.21;35.93
48630;BME280;34426;52.180;4.462;2023-06-04T11:12:24;102419.88;;;22.16;36.33
48630;BME280;34426;52.180;4.462;2023-06-04T11:14:55;102411.47;;;22.24;36.73
48630;BME280;34426;52.180;4.462;2023-06-04T11:17:23;102420.78;;;22.11;37.52
48630;BME280;34426;52.180;4.462;2023-06-04T11:19:50;102419.41;;;22.46;36.59
48630;BME280;34426;52.180;4.462;2023-06-04T11:22:19;102417.78;;;22.40;38.47
48630;BME280;34426;52.180;4.462;2023-06-04T11:24:47;102404.22;;;22.51;38.06
48630;BME280;34426;52.180;4.462;2023-06-04T11:27:14;102408.63;;;22.43;37.94
48630;BME280;34426;52.180;4.462;2023-06-04T11:29:42;102408.38;;;22.40;36.08
48630;BME280;34426;52.180;4.462;2023-06-04T11:32:09;102399.13;;;22.48;34.82
48630;BME280;34426;52.180;4.462;2023-06-04T11:34:47;102408.47;;;22.67;39.43
48630;BME280;34426;52.180;4.462;2023-06-04T11:37:15;102399.69;;;22.96;37.16
48630;BME280;34426;52.180;4.462;2023-06-04T11:39:44;102404.13;;;23.02;33.87
48630;BME280;34426;52.180;4.462;2023-06-04T11:42:11;102402.22;;;22.98;36.71
48630;BME280;34426;52.180;4.462;2023-06-04T11:44:39;102395.47;;;23.07;35.50
48630;BME280;34426;52.180;4.462;2023-06-04T11:47:08;102391.47;;;23.08;34.49
48630;BME280;34426;52.180;4.462;2023-06-04T11:49:37;102394.34;;;23.22;40.98
48630;BME280;34426;52.180;4.462;2023-06-04T11:52:05;102393.38;;;23.13;42.92
48630;BME280;34426;52.180;4.462;2023-06-04T11:54:33;102391.28;;;23.18;43.88
48630;BME280;34426;52.180;4.462;2023-06-04T11:57:02;102384.81;;;23.13;42.68
48630;BME280;34426;52.180;4.462;2023-06-04T11:59:30;102383.44;;;23.10;42.21
48630;BME280;34426;52.180;4.462;2023-06-04T12:01:58;102384.41;;;23.19;40.51
48630;BME280;34426;52.180;4.462;2023-06-04T12:04:30;102380.03;;;23.08;41.74
48630;BME280;34426;52.180;4.462;2023-06-04T12:06:58;102374.78;;;23.29;41.42
48630;BME280;34426;52.180;4.462;2023-06-04T12:09:27;102388.53;;;23.27;41.84
48630;BME280;34426;52.180;4.462;2023-06-04T12:11:59;102393.50;;;23.21;43.72
48630;BME280;34426;52.180;4.462;2023-06-04T12:14:29;102388.97;;;23.34;45.30
48630;BME280;34426;52.180;4.462;2023-06-04T12:16:56;102392.13;;;23.19;45.01
48630;BME280;34426;52.180;4.462;2023-06-04T12:19:24;102385.53;;;23.46;42.57
48630;BME280;34426;52.180;4.462;2023-06-04T12:22:00;102401.44;;;23.38;42.15
48630;BME280;34426;52.180;4.462;2023-06-04T12:24:28;102392.31;;;23.50;41.41
48630;BME280;34426;52.180;4.462;2023-06-04T12:27:03;102391.09;;;23.56;42.87
48630;BME280;34426;52.180;4.462;2023-06-04T12:29:32;102395.50;;;23.76;41.81
48630;BME280;34426;52.180;4.462;2023-06-04T12:32:04;102388.06;;;23.88;41.11
48630;BME280;34426;52.180;4.462;2023-06-04T12:34:31;102387.13;;;23.52;42.44
48630;BME280;34426;52.180;4.462;2023-06-04T12:36:59;102380.66;;;23.87;39.88
48630;BME280;34426;52.180;4.462;2023-06-04T12:39:27;102387.81;;;23.99;40.78
48630;BME280;34426;52.180;4.462;2023-06-04T12:41:52;102383.97;;;23.67;40.12
48630;BME280;34426;52.180;4.462;2023-06-04T12:44:18;102384.25;;;24.29;40.40
48630;BME280;34426;52.180;4.462;2023-06-04T12:46:45;102385.69;;;24.63;37.94
48630;BME280;34426;52.180;4.462;2023-06-04T12:49:10;102381.00;;;24.67;36.92
48630;BME280;34426;52.180;4.462;2023-06-04T12:51:36;102398.34;;;25.24;37.90
48630;BME280;34426;52.180;4.462;2023-06-04T12:54:01;102398.22;;;25.37;38.73
48630;BME280;34426;52.180;4.462;2023-06-04T12:56:27;102399.06;;;25.77;38.05